createdAt,value
2023-05-24T00:02:14.355Z,11.08
2023-05-24T00:04:42.458Z,11.34
2023-05-24T00:07:09.440Z,11.00
2023-05-24T00:09:36.327Z,10.95
2023-05-24T00:12:03.240Z,11.06
2023-05-24T00:14:30.930Z,11.05
2023-05-24T00:16:57.840Z,11.06
2023-05-24T00:19:25.152Z,10.96
2023-05-24T00:21:51.971Z,10.97
2023-05-24T00:24:19.134Z,10.95
2023-05-24T00:26:46.150Z,11.03
2023-05-24T00:29:12.975Z,11.00
2023-05-24T00:31:39.878Z,11.04
2023-05-24T00:34:07.314Z,11.06
2023-05-24T00:36:34.200Z,10.90
2023-05-24T00:39:01.127Z,11.08
2023-05-24T00:41:27.996Z,10.87
2023-05-24T00:43:54.860Z,11.14
2023-05-24T00:46:27.387Z,11.03
2023-05-24T00:48:54.855Z,10.77
2023-05-24T00:51:21.807Z,10.87
2023-05-24T00:53:49.367Z,10.77
2023-05-24T00:56:17.460Z,10.72
2023-05-24T00:58:44.895Z,10.84
2023-05-24T01:01:12.994Z,10.69
2023-05-24T01:03:40.308Z,10.68
2023-05-24T01:06:09.018Z,10.70
2023-05-24T01:09:00.474Z,10.62
2023-05-24T01:11:42.889Z,10.68
2023-05-24T01:14:31.895Z,10.66
2023-05-24T01:17:06.995Z,10.72
2023-05-24T01:19:51.872Z,10.59
2023-05-24T01:22:40.473Z,10.76
2023-05-24T01:25:49.310Z,10.52
2023-05-24T01:28:18.501Z,10.58
2023-05-24T01:30:46.269Z,10.62
2023-05-24T01:33:13.280Z,10.64
2023-05-24T01:35:42.530Z,10.60
2023-05-24T01:38:13.370Z,10.60
2023-05-24T01:40:41.503Z,10.48
2023-05-24T01:43:17.279Z,10.57
2023-05-24T01:46:13.726Z,10.46
2023-05-24T01:48:40.459Z,10.56
2023-05-24T01:51:08.988Z,10.56
2023-05-24T01:53:42.056Z,10.52
2023-05-24T01:56:11.559Z,10.34
2023-05-24T01:58:41.228Z,10.38
2023-05-24T02:01:09.313Z,10.26
2023-05-24T02:03:38.525Z,10.33
2023-05-24T02:06:06.068Z,10.38
2023-05-24T02:08:32.915Z,10.32
2023-05-24T02:10:59.732Z,10.37
2023-05-24T02:13:26.576Z,10.48
2023-05-24T02:15:54.013Z,10.17
2023-05-24T02:18:20.991Z,10.12
2023-05-24T02:20:47.826Z,10.01
2023-05-24T02:23:14.867Z,10.14
2023-05-24T02:25:41.603Z,9.97
2023-05-24T02:28:08.780Z,9.90
2023-05-24T02:30:35.602Z,10.01
2023-05-24T02:33:02.537Z,9.94
2023-05-24T02:35:29.396Z,10.13
2023-05-24T02:37:58.832Z,9.73
2023-05-24T02:40:26.437Z,9.80
2023-05-24T02:42:53.218Z,9.89
2023-05-24T02:45:20.140Z,9.85
2023-05-24T02:47:47.148Z,9.85
2023-05-24T02:50:14.030Z,9.70
2023-05-24T02:52:41.429Z,9.91
2023-05-24T02:55:08.829Z,9.77
2023-05-24T02:57:35.937Z,10.00
2023-05-24T03:00:06.630Z,9.74
2023-05-24T03:02:34.738Z,10.01
2023-05-24T03:05:01.593Z,9.93
2023-05-24T03:07:28.404Z,9.89
2023-05-24T03:09:55.310Z,9.87
2023-05-24T03:12:22.154Z,9.86
2023-05-24T03:14:48.922Z,9.90
2023-05-24T03:17:15.716Z,9.65
2023-05-24T03:19:42.520Z,9.59
2023-05-24T03:22:09.328Z,9.78
2023-05-24T03:24:36.171Z,10.05
2023-05-24T03:27:02.950Z,9.64
2023-05-24T03:29:29.883Z,9.43
2023-05-24T03:31:56.795Z,9.32
2023-05-24T03:34:23.700Z,9.38
2023-05-24T03:36:50.614Z,9.45
2023-05-24T03:39:17.376Z,9.45
2023-05-24T03:41:44.129Z,9.44
2023-05-24T03:44:10.993Z,9.35
2023-05-24T03:46:38.067Z,9.86
2023-05-24T03:49:04.918Z,9.57
2023-05-24T03:51:31.730Z,9.48
2023-05-24T03:53:59.030Z,9.65
2023-05-24T03:56:26.895Z,9.82
2023-05-24T03:58:54.243Z,9.58
2023-05-24T04:01:32.778Z,9.55
2023-05-24T04:04:01.884Z,9.50
2023-05-24T04:06:30.223Z,9.60
2023-05-24T04:08:58.223Z,9.39
2023-05-24T04:11:29.190Z,9.49
2023-05-24T04:13:57.540Z,9.41
2023-05-24T04:16:25.029Z,9.36
2023-05-24T04:18:51.941Z,9.25
2023-05-24T04:21:18.893Z,9.22
2023-05-24T04:23:45.916Z,9.46
2023-05-24T04:26:13.754Z,9.50
2023-05-24T04:28:41.390Z,9.61
2023-05-24T04:31:09.695Z,9.75
2023-05-24T04:33:37.196Z,9.69
2023-05-24T04:36:04.201Z,10.05
2023-05-24T04:38:32.602Z,9.93
2023-05-24T04:40:59.758Z,9.98
2023-05-24T04:43:26.931Z,10.37
2023-05-24T04:45:57.852Z,9.48
2023-05-24T04:48:25.315Z,9.99
2023-05-24T04:50:56.503Z,9.72
2023-05-24T04:53:23.909Z,9.99
2023-05-24T04:55:51.648Z,9.83
2023-05-24T04:58:18.745Z,9.95
2023-05-24T05:00:45.604Z,10.06
2023-05-24T05:03:12.593Z,10.44
2023-05-24T05:05:39.439Z,10.06
2023-05-24T05:08:06.612Z,9.83
2023-05-24T05:10:33.590Z,10.21
2023-05-24T05:13:00.496Z,10.36
2023-05-24T05:15:27.378Z,10.58
2023-05-24T05:17:54.406Z,10.65
2023-05-24T05:20:21.320Z,10.42
2023-05-24T05:22:48.692Z,10.57
2023-05-24T05:25:16.080Z,10.60
2023-05-24T05:27:42.931Z,10.45
2023-05-24T05:30:10.456Z,10.29
2023-05-24T05:32:38.032Z,10.59
2023-05-24T05:35:05.856Z,10.78
2023-05-24T05:37:33.045Z,10.74
2023-05-24T05:39:59.845Z,10.97
2023-05-24T05:42:26.793Z,10.81
2023-05-24T05:44:53.627Z,11.37
2023-05-24T05:47:20.509Z,10.37
2023-05-24T05:49:47.357Z,10.85
2023-05-24T05:52:14.181Z,10.52
2023-05-24T05:54:41.041Z,11.01
2023-05-24T05:57:10.777Z,11.02
2023-05-24T05:59:38.524Z,10.58
2023-05-24T06:02:06.996Z,10.98
2023-05-24T06:04:34.418Z,11.46
2023-05-24T06:07:01.363Z,11.39
2023-05-24T06:09:28.221Z,10.89
2023-05-24T06:11:55.196Z,11.29
2023-05-24T06:14:22.762Z,11.04
2023-05-24T06:16:49.681Z,11.08
2023-05-24T06:19:17.126Z,11.63
2023-05-24T06:21:48.483Z,11.65
2023-05-24T06:24:20.749Z,12.01
2023-05-24T06:26:48.628Z,12.31
2023-05-24T06:29:15.636Z,11.86
2023-05-24T06:31:43.739Z,11.94
2023-05-24T06:34:10.915Z,11.45
2023-05-24T06:36:41.639Z,11.15
2023-05-24T06:39:10.469Z,11.49
2023-05-24T06:41:37.879Z,11.64
2023-05-24T06:44:05.053Z,11.35
2023-05-24T06:46:32.296Z,11.97
2023-05-24T06:48:59.219Z,11.70
2023-05-24T06:51:26.197Z,12.00
2023-05-24T06:53:53.297Z,12.13
2023-05-24T06:56:20.147Z,12.29
2023-05-24T06:58:47.280Z,12.21
2023-05-24T07:01:14.811Z,12.83
2023-05-24T07:03:41.650Z,12.76
2023-05-24T07:06:10.275Z,12.28
2023-05-24T07:08:37.155Z,12.26
2023-05-24T07:11:04.079Z,12.20
2023-05-24T07:13:31.014Z,12.26
2023-05-24T07:15:57.910Z,12.39
2023-05-24T07:18:24.669Z,12.34
2023-05-24T07:20:51.521Z,12.37
2023-05-24T07:23:18.521Z,12.79
2023-05-24T07:25:45.282Z,12.69
2023-05-24T07:28:12.173Z,13.86
2023-05-24T07:30:39.623Z,13.30
2023-05-24T07:33:06.485Z,13.50
2023-05-24T07:35:33.314Z,13.05
2023-05-24T07:38:00.175Z,13.32
2023-05-24T07:40:27.032Z,13.53
2023-05-24T07:42:53.870Z,12.98
2023-05-24T07:45:20.801Z,13.47
2023-05-24T07:47:47.693Z,14.50
2023-05-24T07:50:15.312Z,13.77
2023-05-24T07:52:42.117Z,13.95
2023-05-24T07:55:09.245Z,14.72
2023-05-24T07:57:36.170Z,13.86
2023-05-24T08:00:10.456Z,14.28
2023-05-24T08:02:37.321Z,14.84
2023-05-24T08:05:05.698Z,14.14
2023-05-24T08:07:32.452Z,14.51
2023-05-24T08:09:59.301Z,15.10
2023-05-24T08:12:26.360Z,14.31
2023-05-24T08:14:53.205Z,14.34
2023-05-24T08:17:20.001Z,14.50
2023-05-24T08:19:46.812Z,14.19
2023-05-24T08:22:13.918Z,14.74
2023-05-24T08:24:41.001Z,14.42
2023-05-24T08:27:08.878Z,14.73
2023-05-24T08:29:37.523Z,14.87
2023-05-24T08:32:04.668Z,13.98
2023-05-24T08:34:31.722Z,15.17
2023-05-24T08:36:58.772Z,15.24
2023-05-24T08:39:25.508Z,15.45
2023-05-24T08:42:08.005Z,14.23
2023-05-24T08:44:53.582Z,15.65
2023-05-24T08:47:24.692Z,14.73
2023-05-24T08:49:54.006Z,15.03
2023-05-24T08:52:22.494Z,14.68
2023-05-24T08:54:50.204Z,15.40
2023-05-24T08:57:18.036Z,15.33
2023-05-24T08:59:44.998Z,13.98
2023-05-24T09:02:15.042Z,15.17
2023-05-24T09:04:44.641Z,15.45
2023-05-24T09:07:14.124Z,16.20
2023-05-24T09:09:45.586Z,14.75
2023-05-24T09:12:21.824Z,16.34
2023-05-24T09:14:56.213Z,17.31
2023-05-24T09:17:23.840Z,15.97
2023-05-24T09:19:53.370Z,15.20
2023-05-24T09:22:26.031Z,16.81
2023-05-24T09:24:53.681Z,17.48
2023-05-24T09:27:23.786Z,15.95
2023-05-24T09:29:52.279Z,15.16
2023-05-24T09:32:23.753Z,16.44
2023-05-24T09:34:54.440Z,16.35
2023-05-24T09:37:27.621Z,16.21
2023-05-24T09:39:58.679Z,16.35
2023-05-24T09:42:28.873Z,15.68
2023-05-24T09:45:09.482Z,15.62
2023-05-24T09:47:38.502Z,16.37
2023-05-24T09:50:07.613Z,17.45
2023-05-24T09:52:38.314Z,16.92
2023-05-24T09:55:15.692Z,16.72
2023-05-24T09:57:44.952Z,15.58
2023-05-24T10:00:16.896Z,15.43
2023-05-24T10:02:52.967Z,15.27
2023-05-24T10:05:20.068Z,14.94
2023-05-24T10:07:47.496Z,14.29
2023-05-24T10:10:14.362Z,15.00
2023-05-24T10:12:44.325Z,15.21
2023-05-24T10:15:11.504Z,15.00
2023-05-24T10:17:38.652Z,15.12
2023-05-24T10:20:07.482Z,15.57
2023-05-24T10:22:40.755Z,15.56
2023-05-24T10:25:11.052Z,15.21
2023-05-24T10:27:39.000Z,14.42
2023-05-24T10:30:15.172Z,14.37
2023-05-24T10:32:44.891Z,14.63
2023-05-24T10:35:15.144Z,15.24
2023-05-24T10:37:43.106Z,14.73
2023-05-24T10:40:21.150Z,15.46
2023-05-24T10:42:52.006Z,14.98
2023-05-24T10:45:24.848Z,15.09
2023-05-24T10:47:52.011Z,15.16
2023-05-24T10:50:23.080Z,14.50
2023-05-24T10:52:49.993Z,15.31
2023-05-24T10:55:19.791Z,14.82
2023-05-24T10:57:46.608Z,15.28
2023-05-24T11:03:09.341Z,14.43
2023-05-24T11:05:49.518Z,14.19
2023-05-24T11:08:33.680Z,14.84
2023-05-24T11:13:41.911Z,14.76
2023-05-24T11:16:08.939Z,14.79
2023-05-24T11:18:40.323Z,15.44
2023-05-24T11:21:08.281Z,15.06
2023-05-24T11:23:38.102Z,14.52
2023-05-24T11:26:07.521Z,15.23
2023-05-24T11:28:37.866Z,14.20
2023-05-24T11:31:09.825Z,14.49
2023-05-24T11:33:41.823Z,14.32
2023-05-24T11:36:08.841Z,15.43
2023-05-24T11:38:36.915Z,16.64
2023-05-24T11:41:03.783Z,16.16
2023-05-24T11:43:31.234Z,16.41
2023-05-24T11:45:58.081Z,15.72
2023-05-24T11:48:25.195Z,16.54
2023-05-24T11:50:52.663Z,16.23
2023-05-24T11:53:23.711Z,18.79
2023-05-24T11:55:51.624Z,18.72
2023-05-24T11:58:25.087Z,17.99
2023-05-24T12:00:53.151Z,17.91
2023-05-24T12:03:20.100Z,16.43
2023-05-24T12:05:47.621Z,17.19
2023-05-24T12:08:15.952Z,16.89
2023-05-24T12:10:43.862Z,16.08
2023-05-24T12:13:24.788Z,17.59
2023-05-24T12:15:54.043Z,16.89
2023-05-24T12:18:25.198Z,17.73
2023-05-24T12:20:53.390Z,17.27
2023-05-24T12:23:21.966Z,17.38
2023-05-24T12:25:48.980Z,17.37
2023-05-24T12:28:16.586Z,16.66
2023-05-24T12:30:45.206Z,17.42
2023-05-24T12:33:12.254Z,17.14
2023-05-24T12:35:43.098Z,16.40
2023-05-24T12:38:13.419Z,17.11
2023-05-24T12:40:44.645Z,18.13
2023-05-24T12:43:15.080Z,18.77
2023-05-24T12:45:42.049Z,18.49
2023-05-24T12:48:09.008Z,19.27
2023-05-24T12:50:36.086Z,20.44
2023-05-24T12:53:03.029Z,19.47
2023-05-24T12:55:30.752Z,20.43
2023-05-24T12:57:58.253Z,18.57
2023-05-24T13:00:30.210Z,20.03
2023-05-24T13:02:58.998Z,19.52
2023-05-24T13:05:28.113Z,19.70
2023-05-24T13:07:59.369Z,19.84
2023-05-24T13:10:27.793Z,21.17
2023-05-24T13:12:54.624Z,18.73
2023-05-24T13:15:23.590Z,20.26
2023-05-24T13:17:50.678Z,20.79
2023-05-24T13:20:19.416Z,21.88
2023-05-24T13:22:46.177Z,21.59
2023-05-24T13:25:12.993Z,21.32
2023-05-24T13:27:39.853Z,21.32
2023-05-24T13:30:07.651Z,20.11
2023-05-24T13:32:34.514Z,21.34
2023-05-24T13:35:02.893Z,20.78
2023-05-24T13:37:31.489Z,20.02
2023-05-24T13:39:58.574Z,20.64
2023-05-24T13:42:25.588Z,20.04
2023-05-24T13:44:53.021Z,20.04
2023-05-24T13:47:31.202Z,20.00
2023-05-24T13:50:06.283Z,20.85
2023-05-24T13:52:33.156Z,19.13
2023-05-24T13:55:00.139Z,18.57
2023-05-24T13:57:33.677Z,18.39
2023-05-24T14:00:10.904Z,18.97
2023-05-24T14:02:39.428Z,19.32
2023-05-24T14:05:24.984Z,20.39
2023-05-24T14:07:53.452Z,20.98
2023-05-24T14:10:21.718Z,20.20
2023-05-24T14:12:59.544Z,19.23
2023-05-24T14:15:31.002Z,18.75
2023-05-24T14:17:58.990Z,18.15
2023-05-24T14:20:25.814Z,17.91
2023-05-24T14:22:52.897Z,17.47
2023-05-24T14:25:19.732Z,17.65
2023-05-24T14:27:46.658Z,17.72
2023-05-24T14:30:14.516Z,18.10
2023-05-24T14:32:41.591Z,18.13
2023-05-24T14:35:08.675Z,18.02
2023-05-24T14:37:35.627Z,18.45
2023-05-24T14:40:02.646Z,19.64
2023-05-24T14:42:29.481Z,20.12
2023-05-24T14:44:56.479Z,20.69
2023-05-24T14:47:23.342Z,20.09
2023-05-24T14:49:50.163Z,20.87
2023-05-24T14:52:17.095Z,19.87
2023-05-24T14:54:43.897Z,19.15
2023-05-24T14:57:10.917Z,19.53
2023-05-24T14:59:38.001Z,19.47
2023-05-24T15:02:05.023Z,18.25
2023-05-24T15:04:31.809Z,19.94
2023-05-24T15:06:58.653Z,19.46
2023-05-24T15:09:25.449Z,18.70
2023-05-24T15:11:52.223Z,19.47
2023-05-24T15:14:19.045Z,19.16
2023-05-24T15:16:46.081Z,18.78
2023-05-24T15:19:13.582Z,19.63
2023-05-24T15:21:40.543Z,20.44
2023-05-24T15:24:07.726Z,18.80
2023-05-24T15:26:34.599Z,19.20
2023-05-24T15:29:04.177Z,19.62
2023-05-24T15:31:31.051Z,20.50
2023-05-24T15:33:57.987Z,21.63
2023-05-24T15:36:24.860Z,20.41
2023-05-24T15:38:51.681Z,21.50
2023-05-24T15:41:18.609Z,22.42
2023-05-24T15:43:45.943Z,21.03
2023-05-24T15:46:12.779Z,21.56
2023-05-24T15:48:39.659Z,20.33
2023-05-24T15:53:37.543Z,20.12
2023-05-24T15:56:04.564Z,20.53
2023-05-24T15:58:31.544Z,20.62
2023-05-24T16:00:58.496Z,21.23
2023-05-24T16:03:25.414Z,20.34
2023-05-24T16:05:52.618Z,20.81
2023-05-24T16:08:19.536Z,22.29
2023-05-24T16:10:46.429Z,20.87
2023-05-24T16:13:13.394Z,20.63
2023-05-24T16:15:42.630Z,22.12
2023-05-24T16:18:09.681Z,19.81
2023-05-24T16:20:37.030Z,20.29
2023-05-24T16:23:04.078Z,18.92
2023-05-24T16:25:31.148Z,19.03
2023-05-24T16:27:58.071Z,18.78
2023-05-24T16:30:25.810Z,18.39
2023-05-24T16:32:52.631Z,19.27
2023-05-24T16:35:19.590Z,19.23
2023-05-24T16:37:48.509Z,20.57
2023-05-24T16:40:15.391Z,20.29
2023-05-24T16:42:42.185Z,19.31
2023-05-24T16:45:09.193Z,20.10
2023-05-24T16:47:36.158Z,19.97
2023-05-24T16:50:04.249Z,19.85
2023-05-24T16:52:31.131Z,20.79
2023-05-24T16:54:58.230Z,17.98
2023-05-24T16:57:25.157Z,17.50
2023-05-24T16:59:51.927Z,18.19
2023-05-24T17:02:18.772Z,17.91
2023-05-24T17:04:45.606Z,18.52
2023-05-24T17:07:12.528Z,18.87
2023-05-24T17:09:39.787Z,19.10
2023-05-24T17:12:07.075Z,20.04
2023-05-24T17:14:33.870Z,20.63
2023-05-24T17:17:00.837Z,20.01
2023-05-24T17:19:27.733Z,19.21
2023-05-24T17:21:54.522Z,18.72
2023-05-24T17:24:22.708Z,17.84
2023-05-24T17:26:49.633Z,17.70
2023-05-24T17:29:16.444Z,17.68
2023-05-24T17:31:43.490Z,18.80
2023-05-24T17:34:10.677Z,18.80
2023-05-24T17:36:37.772Z,19.28
2023-05-24T17:39:07.527Z,19.34
2023-05-24T17:41:34.479Z,19.87
2023-05-24T17:44:01.327Z,19.72
2023-05-24T17:46:28.253Z,18.78
2023-05-24T17:48:55.098Z,18.51
2023-05-24T17:51:22.018Z,18.23
2023-05-24T17:53:48.813Z,18.68
2023-05-24T17:56:15.728Z,18.43
2023-05-24T17:58:42.567Z,16.82
2023-05-24T18:01:11.846Z,16.40
2023-05-24T18:03:41.188Z,16.14
2023-05-24T18:06:09.899Z,16.25
2023-05-24T18:08:38.637Z,15.94
2023-05-24T18:11:08.669Z,15.61
2023-05-24T18:13:40.144Z,15.63
2023-05-24T18:16:08.517Z,15.51
2023-05-24T18:18:35.618Z,15.54
2023-05-24T18:21:02.503Z,15.29
2023-05-24T18:23:29.381Z,15.22
2023-05-24T18:26:00.648Z,15.28
2023-05-24T18:28:30.147Z,15.27
2023-05-24T18:30:57.075Z,15.29
2023-05-24T18:33:24.435Z,15.12
2023-05-24T18:35:51.586Z,14.83
2023-05-24T18:38:18.393Z,14.79
2023-05-24T18:40:45.203Z,14.72
2023-05-24T18:43:11.985Z,14.47
2023-05-24T18:45:38.913Z,14.49
2023-05-24T18:48:06.452Z,14.46
2023-05-24T18:50:33.363Z,14.34
2023-05-24T18:53:00.179Z,14.18
2023-05-24T18:55:27.110Z,14.08
2023-05-24T18:57:53.987Z,14.07
2023-05-24T19:00:22.946Z,13.98
2023-05-24T19:02:50.380Z,13.83
2023-05-24T19:05:20.165Z,13.73
2023-05-24T19:07:47.351Z,13.68
2023-05-24T19:10:14.398Z,13.63
2023-05-24T19:12:41.573Z,13.47
2023-05-24T19:15:08.961Z,13.48
2023-05-24T19:17:35.952Z,13.40
2023-05-24T19:20:03.087Z,13.29
2023-05-24T19:22:29.972Z,13.26
2023-05-24T19:24:57.542Z,13.16
2023-05-24T19:27:24.888Z,13.10
2023-05-24T19:29:51.884Z,13.05
2023-05-24T19:32:20.602Z,12.93
2023-05-24T19:34:47.809Z,12.91
2023-05-24T19:37:15.978Z,12.86
2023-05-24T19:39:42.977Z,12.85
2023-05-24T19:42:10.218Z,12.86
2023-05-24T19:44:37.002Z,12.69
2023-05-24T19:47:04.219Z,12.72
2023-05-24T19:49:31.105Z,12.76
2023-05-24T19:51:57.860Z,12.67
2023-05-24T19:54:24.768Z,12.64
2023-05-24T19:56:52.215Z,12.59
2023-05-24T19:59:19.214Z,12.59
2023-05-24T20:01:46.312Z,12.44
2023-05-24T20:04:13.773Z,12.52
2023-05-24T20:06:41.428Z,12.45
2023-05-24T20:09:08.902Z,12.39
2023-05-24T20:11:35.915Z,12.35
2023-05-24T20:14:03.194Z,12.23
2023-05-24T20:16:31.595Z,12.19
2023-05-24T20:18:58.518Z,12.21
2023-05-24T20:21:25.407Z,12.12
2023-05-24T20:23:57.799Z,12.11
2023-05-24T20:26:26.322Z,11.97
2023-05-24T20:28:53.407Z,11.99
2023-05-24T20:31:20.491Z,11.89
2023-05-24T20:33:47.928Z,11.88
2023-05-24T20:36:15.922Z,11.81
2023-05-24T20:38:42.990Z,11.70
2023-05-24T20:41:10.222Z,11.67
2023-05-24T20:43:38.486Z,11.69
2023-05-24T20:46:06.658Z,11.69
2023-05-24T20:48:33.634Z,11.68
2023-05-24T20:51:00.669Z,11.64
2023-05-24T20:53:27.710Z,11.62
2023-05-24T20:55:56.765Z,11.66
2023-05-24T20:58:23.792Z,11.60
2023-05-24T21:00:50.773Z,11.50
2023-05-24T21:03:18.492Z,11.38
2023-05-24T21:05:46.073Z,11.39
2023-05-24T21:08:13.161Z,11.43
2023-05-24T21:10:40.138Z,11.31
2023-05-24T21:13:07.640Z,11.30
2023-05-24T21:15:34.922Z,11.19
2023-05-24T21:18:01.766Z,11.10
2023-05-24T21:20:28.621Z,11.04
2023-05-24T21:22:55.769Z,10.96
2023-05-24T21:25:22.658Z,11.02
2023-05-24T21:27:49.457Z,10.82
2023-05-24T21:30:16.530Z,10.98
2023-05-24T21:32:43.557Z,10.69
2023-05-24T21:35:10.428Z,10.71
2023-05-24T21:37:37.293Z,10.84
2023-05-24T21:40:05.442Z,10.97
2023-05-24T21:42:32.359Z,10.73
2023-05-24T21:44:59.348Z,10.66
2023-05-24T21:47:26.429Z,10.68
2023-05-24T21:49:55.033Z,10.68
2023-05-24T21:52:22.375Z,10.61
2023-05-24T21:54:49.396Z,10.49
2023-05-24T21:57:16.167Z,10.51
2023-05-24T21:59:42.964Z,10.50
2023-05-24T22:02:10.175Z,10.47
2023-05-24T22:04:37.059Z,10.60
2023-05-24T22:07:04.030Z,10.42
2023-05-24T22:09:30.957Z,10.37
2023-05-24T22:11:57.889Z,10.34
2023-05-24T22:14:24.669Z,10.21
2023-05-24T22:16:51.539Z,10.24
2023-05-24T22:19:28.487Z,10.27
2023-05-24T22:22:05.672Z,9.98
2023-05-24T22:24:32.455Z,10.19
2023-05-24T22:27:01.559Z,10.02
2023-05-24T22:29:28.716Z,10.05
2023-05-24T22:31:55.781Z,10.23
2023-05-24T22:34:27.650Z,10.30
2023-05-24T22:36:55.197Z,10.05
2023-05-24T22:39:22.156Z,9.88
2023-05-24T22:41:49.601Z,9.89
2023-05-24T22:44:17.004Z,9.88
2023-05-24T22:46:43.944Z,9.62
2023-05-24T22:49:13.499Z,9.45
2023-05-24T22:51:44.610Z,9.50
2023-05-24T22:54:12.176Z,9.52
2023-05-24T22:56:39.512Z,9.38
2023-05-24T22:59:07.057Z,9.24
2023-05-24T23:01:34.359Z,9.39
2023-05-24T23:04:15.652Z,9.31
2023-05-24T23:06:46.406Z,9.27
2023-05-24T23:09:13.349Z,9.24
2023-05-24T23:11:40.313Z,9.27
2023-05-24T23:14:09.116Z,9.07
2023-05-24T23:16:46.110Z,9.08
2023-05-24T23:19:18.728Z,9.01
2023-05-24T23:21:46.006Z,8.91
2023-05-24T23:24:14.943Z,8.96
2023-05-24T23:26:42.540Z,8.90
2023-05-24T23:29:09.773Z,8.80
2023-05-24T23:31:36.949Z,8.67
2023-05-24T23:34:04.296Z,8.69
2023-05-24T23:36:31.515Z,8.65
2023-05-24T23:38:58.554Z,8.59
2023-05-24T23:41:25.390Z,8.63
2023-05-24T23:43:52.644Z,8.59
2023-05-24T23:46:19.599Z,8.55
2023-05-24T23:48:46.557Z,8.48
2023-05-24T23:51:13.351Z,8.40
2023-05-24T23:53:40.141Z,8.28
2023-05-24T23:56:06.957Z,8.32
2023-05-24T23:58:34.251Z,8.24
